createdAt,value
2023-02-13T00:00:35.317Z,103083.63
2023-02-13T00:03:38.638Z,103085.38
2023-02-13T00:06:42.268Z,103079.28
2023-02-13T00:09:45.453Z,103086.22
2023-02-13T00:12:50.003Z,103091.38
2023-02-13T00:16:01.318Z,103091.53
2023-02-13T00:19:05.050Z,103089.81
2023-02-13T00:22:08.306Z,103096.78
2023-02-13T00:25:11.878Z,103095.13
2023-02-13T00:28:16.412Z,103094.19
2023-02-13T00:31:25.248Z,103090.84
2023-02-13T00:34:28.962Z,103091.72
2023-02-13T00:37:32.191Z,103089.19
2023-02-13T00:40:35.490Z,103090.09
2023-02-13T00:43:40.478Z,103093.59
2023-02-13T00:46:44.125Z,103092.66
2023-02-13T00:49:47.929Z,103092.69
2023-02-13T00:52:51.203Z,103085.78
2023-02-13T00:55:56.423Z,103086.69
2023-02-13T00:59:00.979Z,103097.03
2023-02-13T01:02:04.636Z,103099.69
2023-02-13T01:05:11.059Z,103097.09
2023-02-13T01:08:19.032Z,103091.91
2023-02-13T01:11:23.332Z,103103.19
2023-02-13T01:14:28.137Z,103106.69
2023-02-13T01:17:31.899Z,103105.84
2023-02-13T01:20:35.081Z,103108.47
2023-02-13T01:23:39.806Z,103110.19
2023-02-13T01:26:42.932Z,103105.84
2023-02-13T01:29:47.861Z,103106.75
2023-02-13T01:32:50.889Z,103112.91
2023-02-13T01:35:54.659Z,103118.91
2023-02-13T01:39:00.379Z,103124.03
2023-02-13T01:42:03.817Z,103127.50
2023-02-13T01:45:24.341Z,103128.31
2023-02-13T01:48:30.849Z,103120.53
2023-02-13T01:51:38.266Z,103131.88
2023-02-13T01:54:45.249Z,103135.25
2023-02-13T01:57:57.563Z,103142.22
2023-02-13T02:01:03.341Z,103139.66
2023-02-13T02:04:12.898Z,103147.41
2023-02-13T02:07:22.963Z,103139.66
2023-02-13T02:10:27.235Z,103141.38
2023-02-13T02:13:30.413Z,103147.47
2023-02-13T02:16:41.106Z,103141.38
2023-02-13T02:19:53.321Z,103142.28
2023-02-13T02:23:48.939Z,103151.00
2023-02-13T02:27:27.314Z,103151.06
2023-02-13T02:31:15.601Z,103151.94
2023-02-13T02:34:30.372Z,103147.63
2023-02-13T02:37:55.643Z,103155.44
2023-02-13T02:41:11.363Z,103153.72
2023-02-13T02:44:32.915Z,103157.19
2023-02-13T02:48:04.747Z,103154.63
2023-02-13T02:51:21.288Z,103161.56
2023-02-13T02:54:53.007Z,103160.66
2023-02-13T02:58:22.481Z,103154.59
2023-02-13T03:01:48.399Z,103152.97
2023-02-13T03:05:18.073Z,103154.78
2023-02-13T03:08:37.179Z,103151.41
2023-02-13T03:11:59.558Z,103141.91
2023-02-13T03:15:02.936Z,103144.44
2023-02-13T03:18:24.016Z,103148.81
2023-02-13T03:21:57.361Z,103140.19
2023-02-13T03:25:13.045Z,103138.44
2023-02-13T03:28:43.191Z,103141.91
2023-02-13T03:31:54.163Z,103146.28
2023-02-13T03:35:34.854Z,103141.97
2023-02-13T03:38:45.525Z,103144.56
2023-02-13T03:41:55.168Z,103141.09
2023-02-13T03:45:24.165Z,103142.00
2023-02-13T03:48:50.784Z,103129.13
2023-02-13T03:52:00.018Z,103133.44
2023-02-13T03:55:26.803Z,103129.03
2023-02-13T03:58:53.666Z,103135.13
2023-02-13T04:02:07.938Z,103131.69
2023-02-13T04:05:17.544Z,103132.59
2023-02-13T04:08:20.743Z,103126.53
2023-02-13T04:11:35.016Z,103126.63
2023-02-13T04:14:46.789Z,103124.03
2023-02-13T04:17:56.468Z,103126.63
2023-02-13T04:21:03.717Z,103126.69
2023-02-13T04:24:07.926Z,103122.28
2023-02-13T04:27:14.971Z,103132.66
2023-02-13T04:30:20.115Z,103130.06
2023-02-13T04:33:52.640Z,103135.22
2023-02-13T04:37:19.141Z,103135.16
2023-02-13T04:40:26.366Z,103128.28
2023-02-13T04:43:58.682Z,103128.28
2023-02-13T04:47:47.594Z,103126.50
2023-02-13T04:51:18.053Z,103127.28
2023-02-13T04:54:26.520Z,103122.97
2023-02-13T04:57:30.105Z,103126.47
2023-02-13T05:00:33.295Z,103126.44
2023-02-13T05:03:37.675Z,103141.13
2023-02-13T05:06:41.010Z,103139.38
2023-02-13T05:09:44.023Z,103142.84
2023-02-13T05:12:47.204Z,103145.44
2023-02-13T05:15:52.543Z,103147.16
2023-02-13T05:18:57.034Z,103151.47
2023-02-13T05:22:17.882Z,103157.47
2023-02-13T05:25:21.046Z,103158.38
2023-02-13T05:28:41.668Z,103156.66
2023-02-13T05:31:44.821Z,103157.56
2023-02-13T05:34:49.296Z,103154.09
2023-02-13T05:37:52.444Z,103153.28
2023-02-13T05:40:56.225Z,103160.16
2023-02-13T05:43:59.881Z,103148.88
2023-02-13T05:47:06.416Z,103154.00
2023-02-13T05:50:11.993Z,103160.97
2023-02-13T05:53:15.105Z,103166.16
2023-02-13T05:56:18.248Z,103166.16
2023-02-13T05:59:23.752Z,103167.91
2023-02-13T06:02:27.583Z,103179.09
2023-02-13T06:05:32.063Z,103179.06
2023-02-13T06:08:35.232Z,103177.34
2023-02-13T06:11:38.769Z,103179.03
2023-02-13T06:14:41.837Z,103181.63
2023-02-13T06:17:44.985Z,103188.47
2023-02-13T06:20:49.533Z,103193.69
2023-02-13T06:23:53.037Z,103195.41
2023-02-13T06:27:02.114Z,103185.06
2023-02-13T06:30:09.654Z,103188.53
2023-02-13T06:33:12.888Z,103191.88
2023-02-13T06:36:17.475Z,103190.97
2023-02-13T06:39:21.241Z,103189.25
2023-02-13T06:42:24.468Z,103190.22
2023-02-13T06:45:27.804Z,103205.69
2023-02-13T06:48:31.192Z,103204.06
2023-02-13T06:51:35.812Z,103202.25
2023-02-13T06:54:47.445Z,103215.28
2023-02-13T06:57:51.316Z,103218.75
2023-02-13T07:00:54.638Z,103215.34
2023-02-13T07:03:57.824Z,103229.97
2023-02-13T07:07:02.558Z,103226.53
2023-02-13T07:10:12.800Z,103225.66
2023-02-13T07:13:16.151Z,103219.53
2023-02-13T07:16:21.719Z,103214.34
2023-02-13T07:19:25.405Z,103227.31
2023-02-13T07:22:30.152Z,103229.88
2023-02-13T07:25:33.730Z,103224.78
2023-02-13T07:28:36.988Z,103228.16
2023-02-13T07:31:40.418Z,103229.09
2023-02-13T07:34:59.594Z,103228.22
2023-02-13T07:38:06.335Z,103234.22
2023-02-13T07:41:10.428Z,103227.38
2023-02-13T07:44:16.287Z,103235.16
2023-02-13T07:47:20.347Z,103231.63
2023-02-13T07:50:23.742Z,103234.19
2023-02-13T07:53:28.216Z,103242.81
2023-02-13T07:56:31.316Z,103232.47
2023-02-13T07:59:34.418Z,103242.81
2023-02-13T08:02:37.477Z,103239.28
2023-02-13T08:05:41.201Z,103235.88
2023-02-13T08:08:45.633Z,103239.28
2023-02-13T08:11:53.888Z,103244.38
2023-02-13T08:14:57.180Z,103242.66
2023-02-13T08:18:00.322Z,103247.81
2023-02-13T08:21:03.876Z,103242.63
2023-02-13T08:24:09.207Z,103241.75
2023-02-13T08:27:13.798Z,103238.25
2023-02-13T08:30:17.580Z,103238.16
2023-02-13T08:33:20.899Z,103231.22
2023-02-13T08:36:24.400Z,103241.53
2023-02-13T08:39:29.596Z,103240.66
2023-02-13T08:42:32.657Z,103243.31
2023-02-13T08:45:36.842Z,103240.63
2023-02-13T08:48:40.552Z,103233.75
2023-02-13T08:51:43.710Z,103235.38
2023-02-13T08:54:48.236Z,103230.97
2023-02-13T08:57:51.272Z,103236.16
2023-02-13T09:00:54.552Z,103240.50
2023-02-13T09:03:57.649Z,103241.34
2023-02-13T09:07:00.760Z,103232.72
2023-02-13T09:10:06.141Z,103240.47
2023-02-13T09:13:09.292Z,103237.88
2023-02-13T09:16:12.781Z,103240.47
2023-02-13T09:19:16.047Z,103243.09
2023-02-13T09:22:20.259Z,103248.41
2023-02-13T09:25:27.495Z,103242.34
2023-02-13T09:28:31.977Z,103246.69
2023-02-13T09:31:35.302Z,103248.41
2023-02-13T09:34:38.962Z,103251.06
2023-02-13T09:37:42.124Z,103251.09
2023-02-13T09:40:52.639Z,103248.47
2023-02-13T09:44:00.218Z,103251.88
2023-02-13T09:47:13.081Z,103258.88
2023-02-13T09:50:22.333Z,103239.94
2023-02-13T09:53:29.228Z,103234.00
2023-02-13T09:56:49.931Z,103227.03
2023-02-13T09:59:59.875Z,103226.22
2023-02-13T10:03:20.577Z,103215.91
2023-02-13T10:06:31.435Z,103211.59
2023-02-13T10:09:45.642Z,103207.25
2023-02-13T10:13:07.994Z,103205.66
2023-02-13T10:16:17.000Z,103210.81
2023-02-13T10:19:34.161Z,103196.00
2023-02-13T10:22:44.388Z,103195.22
2023-02-13T10:25:53.777Z,103195.09
2023-02-13T10:29:23.559Z,103193.28
2023-02-13T10:32:39.470Z,103188.09
2023-02-13T10:35:47.147Z,103182.19
2023-02-13T10:38:59.232Z,103188.25
2023-02-13T10:42:15.612Z,103185.66
2023-02-13T10:45:43.862Z,103177.84
2023-02-13T10:49:01.730Z,103170.91
2023-02-13T10:52:18.715Z,103164.84
2023-02-13T10:55:44.616Z,103158.75
2023-02-13T10:59:06.432Z,103153.56
2023-02-13T11:02:25.085Z,103152.75
2023-02-13T11:05:33.864Z,103155.31
2023-02-13T11:08:43.265Z,103144.97
2023-02-13T11:11:46.577Z,103153.53
2023-02-13T11:15:00.230Z,103146.56
2023-02-13T11:18:18.322Z,103141.16
2023-02-13T11:21:38.686Z,103141.16
2023-02-13T11:24:50.672Z,103139.44
2023-02-13T11:28:11.455Z,103146.31
2023-02-13T11:31:25.572Z,103142.88
2023-02-13T11:34:33.908Z,103141.09
2023-02-13T11:37:37.007Z,103139.31
2023-02-13T11:40:41.794Z,103146.28
2023-02-13T11:43:49.418Z,103140.16
2023-02-13T11:46:55.431Z,103146.28
2023-02-13T11:50:00.040Z,103141.09
2023-02-13T11:53:09.669Z,103137.63
2023-02-13T11:56:17.152Z,103134.88
2023-02-13T11:59:24.692Z,103141.66
2023-02-13T12:02:30.327Z,103139.97
2023-02-13T12:05:34.953Z,103137.34
2023-02-13T12:08:44.280Z,103145.09
2023-02-13T12:11:51.315Z,103140.88
2023-02-13T12:14:54.621Z,103155.50
2023-02-13T12:18:10.998Z,103164.91
2023-02-13T12:21:30.054Z,103168.28
2023-02-13T12:25:18.731Z,103169.13
2023-02-13T12:28:30.098Z,103175.25
2023-02-13T12:31:50.546Z,103173.44
2023-02-13T12:35:40.229Z,103175.13
2023-02-13T12:44:33.118Z,103189.03
2023-02-13T12:51:38.040Z,103192.25
2023-02-13T12:54:59.903Z,103186.41
2023-02-13T12:58:27.450Z,103188.03
2023-02-13T13:01:59.346Z,103188.03
2023-02-13T13:05:21.529Z,103188.13
2023-02-13T13:08:44.491Z,103190.81
2023-02-13T13:12:34.408Z,103184.78
2023-02-13T13:15:48.367Z,103183.09
2023-02-13T13:19:08.502Z,103192.56
2023-02-13T13:22:23.839Z,103192.44
2023-02-13T13:25:37.517Z,103189.75
2023-02-13T13:28:45.087Z,103182.97
2023-02-13T13:31:55.275Z,103189.00
2023-02-13T13:35:05.351Z,103187.22
2023-02-13T13:38:18.211Z,103184.69
2023-02-13T13:41:31.263Z,103194.19
2023-02-13T13:45:23.592Z,103185.47
2023-02-13T13:48:57.088Z,103187.06
2023-02-13T13:52:21.963Z,103183.88
2023-02-13T13:56:05.904Z,103176.06
2023-02-13T13:59:18.778Z,103176.06
2023-02-13T14:02:51.074Z,103169.13
2023-02-13T14:06:09.604Z,103169.94
2023-02-13T14:09:40.695Z,103165.00
2023-02-13T14:12:52.243Z,103165.94
2023-02-13T14:15:55.910Z,103162.50
2023-02-13T14:18:59.420Z,103165.94
2023-02-13T14:22:33.057Z,103158.28
2023-02-13T14:25:38.866Z,103154.00
2023-02-13T14:29:00.801Z,103151.34
2023-02-13T14:32:18.093Z,103148.66
2023-02-13T14:35:28.493Z,103142.56
2023-02-13T14:38:32.417Z,103145.25
2023-02-13T14:42:01.892Z,103147.81
2023-02-13T14:45:16.774Z,103138.28
2023-02-13T14:48:23.717Z,103129.78
2023-02-13T14:51:35.949Z,103134.94
2023-02-13T14:54:46.724Z,103133.25
2023-02-13T14:57:55.733Z,103127.19
2023-02-13T15:01:05.202Z,103139.31
2023-02-13T15:04:17.703Z,103142.72
2023-02-13T15:07:25.800Z,103141.09
2023-02-13T15:10:41.178Z,103141.13
2023-02-13T15:13:45.849Z,103132.59
2023-02-13T15:16:55.298Z,103121.41
2023-02-13T15:20:06.437Z,103111.00
2023-02-13T15:23:21.135Z,103108.47
2023-02-13T15:26:29.218Z,103117.03
2023-02-13T15:29:47.906Z,103105.78
2023-02-13T15:32:57.252Z,103108.47
2023-02-13T15:36:02.691Z,103103.25
2023-02-13T15:39:13.329Z,103109.31
2023-02-13T15:42:16.616Z,103105.00
2023-02-13T15:45:26.874Z,103105.13
2023-02-13T15:48:31.079Z,103110.28
2023-02-13T15:51:34.794Z,103108.66
2023-02-13T15:54:38.332Z,103107.84
2023-02-13T15:57:42.112Z,103106.13
2023-02-13T16:00:46.696Z,103108.72
2023-02-13T16:03:59.462Z,103115.69
2023-02-13T16:07:04.626Z,103113.91
2023-02-13T16:10:16.793Z,103113.03
2023-02-13T16:13:20.752Z,103109.69
2023-02-13T16:16:26.214Z,103109.69
2023-02-13T16:19:46.408Z,103118.38
2023-02-13T16:22:52.936Z,103123.59
2023-02-13T16:26:03.480Z,103121.81
2023-02-13T16:29:14.271Z,103115.72
2023-02-13T16:32:29.991Z,103113.22
2023-02-13T16:35:38.832Z,103121.84
2023-02-13T16:38:45.936Z,103122.75
2023-02-13T16:41:53.174Z,103118.41
2023-02-13T16:45:23.972Z,103116.63
2023-02-13T16:48:28.661Z,103122.75
2023-02-13T16:51:38.295Z,103124.47
2023-02-13T16:54:53.076Z,103119.25
2023-02-13T16:58:03.604Z,103135.72
2023-02-13T17:01:07.329Z,103130.66
2023-02-13T17:04:23.787Z,103137.56
2023-02-13T17:07:29.350Z,103134.94
2023-02-13T17:10:37.685Z,103139.28
2023-02-13T17:13:42.160Z,103139.31
2023-02-13T17:16:45.373Z,103147.06
2023-02-13T17:19:50.464Z,103143.63
2023-02-13T17:22:55.704Z,103143.63
2023-02-13T17:25:58.888Z,103146.22
2023-02-13T17:29:02.060Z,103144.50
2023-02-13T17:32:05.665Z,103141.06
2023-02-13T17:35:11.908Z,103145.41
2023-02-13T17:38:15.331Z,103146.22
2023-02-13T17:41:18.745Z,103147.06
2023-02-13T17:44:30.669Z,103141.00
2023-02-13T17:47:33.791Z,103144.50
2023-02-13T17:50:39.251Z,103143.63
2023-02-13T17:53:42.584Z,103138.44
2023-02-13T17:56:45.844Z,103148.78
2023-02-13T17:59:49.143Z,103142.78
2023-02-13T18:02:52.699Z,103141.94
2023-02-13T18:05:57.207Z,103148.88
2023-02-13T18:09:00.432Z,103148.88
2023-02-13T18:12:05.959Z,103156.63
2023-02-13T18:15:10.448Z,103161.81
2023-02-13T18:18:15.850Z,103161.00
2023-02-13T18:21:23.508Z,103152.34
2023-02-13T18:24:30.625Z,103155.00
2023-02-13T18:27:33.828Z,103157.56
2023-02-13T18:30:37.061Z,103150.72
2023-02-13T18:33:40.324Z,103153.31
2023-02-13T18:36:50.658Z,103151.59
2023-02-13T18:39:54.404Z,103152.50
2023-02-13T18:42:58.028Z,103154.19
2023-02-13T18:46:01.330Z,103166.31
2023-02-13T18:49:08.780Z,103168.91
2023-02-13T18:52:13.718Z,103161.13
2023-02-13T18:55:17.152Z,103156.81
2023-02-13T18:58:20.477Z,103157.69
2023-02-13T19:01:24.170Z,103162.06
2023-02-13T19:04:27.808Z,103150.91
2023-02-13T19:07:32.667Z,103154.38
2023-02-13T19:10:35.894Z,103148.34
2023-02-13T19:13:43.244Z,103151.78
2023-02-13T19:16:46.382Z,103162.16
2023-02-13T19:19:50.526Z,103157.84
2023-02-13T19:22:56.530Z,103153.53
2023-02-13T19:25:59.986Z,103154.38
2023-02-13T19:29:03.728Z,103159.63
2023-02-13T19:32:06.860Z,103157.03
2023-02-13T19:35:13.291Z,103165.69
2023-02-13T19:38:17.809Z,103164.84
2023-02-13T19:41:25.762Z,103158.78
2023-02-13T19:44:28.930Z,103167.44
2023-02-13T19:47:35.204Z,103176.09
2023-02-13T19:50:39.092Z,103176.09
2023-02-13T19:53:43.770Z,103175.25
2023-02-13T19:56:47.641Z,103176.97
2023-02-13T19:59:50.944Z,103164.94
2023-02-13T20:02:56.670Z,103177.03
2023-02-13T20:06:05.653Z,103177.84
2023-02-13T20:09:13.749Z,103177.88
2023-02-13T20:12:17.165Z,103177.91
2023-02-13T20:15:23.770Z,103182.16
2023-02-13T20:18:27.047Z,103176.16
2023-02-13T20:21:30.652Z,103182.25
2023-02-13T20:24:35.355Z,103185.72
2023-02-13T20:27:42.401Z,103188.28
2023-02-13T20:30:46.338Z,103184.84
2023-02-13T20:33:51.642Z,103190.88
2023-02-13T20:36:56.841Z,103189.16
2023-02-13T20:40:05.639Z,103199.56
2023-02-13T20:43:08.836Z,103196.97
2023-02-13T20:46:13.386Z,103204.78
2023-02-13T20:49:21.157Z,103211.69
2023-02-13T20:52:24.395Z,103215.19
2023-02-13T20:55:32.735Z,103220.41
2023-02-13T20:58:36.188Z,103215.19
2023-02-13T21:01:41.418Z,103235.88
2023-02-13T21:04:44.577Z,103225.56
2023-02-13T21:07:48.544Z,103239.38
2023-02-13T21:10:52.959Z,103239.44
2023-02-13T21:13:57.194Z,103232.56
2023-02-13T21:17:00.532Z,103229.13
2023-02-13T21:20:05.553Z,103231.72
2023-02-13T21:23:08.667Z,103235.19
2023-02-13T21:26:17.064Z,103242.97
2023-02-13T21:29:20.763Z,103239.56
2023-02-13T21:32:23.934Z,103232.66
2023-02-13T21:35:27.191Z,103237.94
2023-02-13T21:38:30.404Z,103245.69
2023-02-13T21:41:37.107Z,103246.56
2023-02-13T21:44:40.264Z,103243.97
2023-02-13T21:47:44.683Z,103240.53
2023-02-13T21:50:47.739Z,103237.09
2023-02-13T21:53:51.243Z,103237.91
2023-02-13T21:56:55.664Z,103246.50
2023-02-13T21:59:58.724Z,103244.88
2023-02-13T22:03:01.871Z,103241.47
2023-02-13T22:06:05.640Z,103237.97
2023-02-13T22:09:11.936Z,103231.06
2023-02-13T22:12:16.342Z,103239.66
2023-02-13T22:15:19.598Z,103244.81
2023-02-13T22:18:22.904Z,103245.75
2023-02-13T22:21:28.613Z,103239.75
2023-02-13T22:24:32.699Z,103245.81
2023-02-13T22:27:37.370Z,103244.09
2023-02-13T22:30:40.657Z,103254.41
2023-02-13T22:33:47.610Z,103258.78
2023-02-13T22:36:50.858Z,103247.56
2023-02-13T22:39:53.923Z,103258.75
2023-02-13T22:42:58.349Z,103253.59
2023-02-13T22:46:06.444Z,103256.19
2023-02-13T22:49:09.562Z,103261.34
2023-02-13T22:52:12.746Z,103258.75
2023-02-13T22:55:15.779Z,103256.22
2023-02-13T22:58:20.184Z,103254.53
2023-02-13T23:01:26.960Z,103266.59
2023-02-13T23:04:30.329Z,103256.22
2023-02-13T23:07:33.634Z,103255.38
2023-02-13T23:10:37.049Z,103254.53
2023-02-13T23:13:42.942Z,103251.06
2023-02-13T23:17:03.305Z,103247.63
2023-02-13T23:20:08.628Z,103251.91
2023-02-13T23:23:12.853Z,103247.63
2023-02-13T23:26:17.173Z,103252.78
2023-02-13T23:29:21.775Z,103256.28
2023-02-13T23:32:25.627Z,103262.31
2023-02-13T23:35:28.893Z,103257.16
2023-02-13T23:38:32.177Z,103261.47
2023-02-13T23:41:38.168Z,103254.53
2023-02-13T23:44:42.765Z,103263.16
2023-02-13T23:47:45.979Z,103257.97
2023-02-13T23:50:53.278Z,103260.56
2023-02-13T23:53:57.388Z,103259.72
2023-02-13T23:57:01.416Z,103265.78
